sensor_id;sensor_type;location;lat;lon;timestamp;temperature;humidity
7512;DHT22;9999;48.780;9.146;2022-07-29T00:01:08;19.90;99.90
7512;DHT22;9999;48.780;9.146;2022-07-29T00:03:35;19.90;99.90
7512;DHT22;9999;48.780;9.146;2022-07-29T00:06:02;19.80;99.90
7512;DHT22;9999;48.780;9.146;2022-07-29T00:08:28;19.80;99.90
7512;DHT22;9999;48.780;9.146;2022-07-29T00:10:55;19.70;99.90
7512;DHT22;9999;48.780;9.146;2022-07-29T00:13:22;19.80;99.90
7512;DHT22;9999;48.780;9.146;2022-07-29T00:15:49;19.80;99.90
7512;DHT22;9999;48.780;9.146;2022-07-29T00:18:17;19.90;99.90
7512;DHT22;9999;48.780;9.146;2022-07-29T00:20:44;19.80;99.90
7512;DHT22;9999;48.780;9.146;2022-07-29T00:23:10;19.70;99.90
7512;DHT22;9999;48.780;9.146;2022-07-29T00:25:37;19.80;99.90
7512;DHT22;9999;48.780;9.146;2022-07-29T00:28:04;19.70;99.90
7512;DHT22;9999;48.780;9.146;2022-07-29T00:30:31;19.70;99.90
7512;DHT22;9999;48.780;9.146;2022-07-29T00:32:58;19.70;99.90
7512;DHT22;9999;48.780;9.146;2022-07-29T00:35:26;19.70;99.90
7512;DHT22;9999;48.780;9.146;2022-07-29T00:38:10;19.70;99.90
7512;DHT22;9999;48.780;9.146;2022-07-29T00:40:37;19.70;99.90
7512;DHT22;9999;48.780;9.146;2022-07-29T00:43:04;19.70;99.90
7512;DHT22;9999;48.780;9.146;2022-07-29T00:45:31;19.80;99.90
7512;DHT22;9999;48.780;9.146;2022-07-29T00:47:58;19.80;99.90
7512;DHT22;9999;48.780;9.146;2022-07-29T00:50:26;19.70;99.90
7512;DHT22;9999;48.780;9.146;2022-07-29T00:52:53;19.70;99.90
7512;DHT22;9999;48.780;9.146;2022-07-29T00:55:20;19.60;99.90
7512;DHT22;9999;48.780;9.146;2022-07-29T00:57:47;19.70;99.90
7512;DHT22;9999;48.780;9.146;2022-07-29T01:00:16;19.60;99.90
7512;DHT22;9999;48.780;9.146;2022-07-29T01:02:44;19.60;99.90
7512;DHT22;9999;48.780;9.146;2022-07-29T01:05:11;19.60;99.90
7512;DHT22;9999;48.780;9.146;2022-07-29T01:07:41;19.60;99.90
7512;DHT22;9999;48.780;9.146;2022-07-29T01:10:10;19.70;99.90
7512;DHT22;9999;48.780;9.146;2022-07-29T01:12:38;19.70;99.90
7512;DHT22;9999;48.780;9.146;2022-07-29T01:15:07;19.70;99.90
7512;DHT22;9999;48.780;9.146;2022-07-29T01:17:38;19.80;99.90
7512;DHT22;9999;48.780;9.146;2022-07-29T01:20:12;19.70;99.90
7512;DHT22;9999;48.780;9.146;2022-07-29T01:23:06;19.70;99.90
7512;DHT22;9999;48.780;9.146;2022-07-29T01:25:54;19.60;99.90
7512;DHT22;9999;48.780;9.146;2022-07-29T01:28:52;19.60;99.90
7512;DHT22;9999;48.780;9.146;2022-07-29T01:31:27;19.50;99.90
7512;DHT22;9999;48.780;9.146;2022-07-29T01:33:58;19.50;99.90
7512;DHT22;9999;48.780;9.146;2022-07-29T01:36:30;19.50;99.90
7512;DHT22;9999;48.780;9.146;2022-07-29T01:39:02;19.50;99.90
7512;DHT22;9999;48.780;9.146;2022-07-29T01:41:32;19.40;99.90
7512;DHT22;9999;48.780;9.146;2022-07-29T01:44:10;19.40;99.90
7512;DHT22;9999;48.780;9.146;2022-07-29T01:46:41;19.40;99.90
7512;DHT22;9999;48.780;9.146;2022-07-29T01:49:15;19.40;99.90
7512;DHT22;9999;48.780;9.146;2022-07-29T01:51:46;19.40;99.90
7512;DHT22;9999;48.780;9.146;2022-07-29T01:54:18;19.40;99.90
7512;DHT22;9999;48.780;9.146;2022-07-29T01:56:49;19.40;99.90
7512;DHT22;9999;48.780;9.146;2022-07-29T01:59:19;19.40;99.90
7512;DHT22;9999;48.780;9.146;2022-07-29T02:01:47;19.40;99.90
7512;DHT22;9999;48.780;9.146;2022-07-29T02:04:15;19.40;99.90
7512;DHT22;9999;48.780;9.146;2022-07-29T02:06:44;19.40;99.90
7512;DHT22;9999;48.780;9.146;2022-07-29T02:09:14;19.40;99.90
7512;DHT22;9999;48.780;9.146;2022-07-29T02:11:44;19.30;99.90
7512;DHT22;9999;48.780;9.146;2022-07-29T02:14:14;19.30;99.90
7512;DHT22;9999;48.780;9.146;2022-07-29T02:16:44;19.40;99.90
7512;DHT22;9999;48.780;9.146;2022-07-29T02:19:12;19.30;99.90
7512;DHT22;9999;48.780;9.146;2022-07-29T02:21:40;19.30;99.90
7512;DHT22;9999;48.780;9.146;2022-07-29T02:24:11;19.20;99.90
7512;DHT22;9999;48.780;9.146;2022-07-29T02:26:39;19.20;99.90
7512;DHT22;9999;48.780;9.146;2022-07-29T02:29:06;19.30;99.90
7512;DHT22;9999;48.780;9.146;2022-07-29T02:31:36;19.30;99.90
7512;DHT22;9999;48.780;9.146;2022-07-29T02:34:08;19.20;99.90
7512;DHT22;9999;48.780;9.146;2022-07-29T02:36:35;19.20;99.90
7512;DHT22;9999;48.780;9.146;2022-07-29T02:39:03;19.20;99.90
7512;DHT22;9999;48.780;9.146;2022-07-29T02:41:35;19.30;99.90
7512;DHT22;9999;48.780;9.146;2022-07-29T02:44:06;19.20;99.90
7512;DHT22;9999;48.780;9.146;2022-07-29T02:46:37;19.20;99.90
7512;DHT22;9999;48.780;9.146;2022-07-29T02:49:15;19.20;99.90
7512;DHT22;9999;48.780;9.146;2022-07-29T02:51:44;19.20;99.90
7512;DHT22;9999;48.780;9.146;2022-07-29T02:54:22;19.20;99.90
7512;DHT22;9999;48.780;9.146;2022-07-29T02:56:51;19.20;99.90
7512;DHT22;9999;48.780;9.146;2022-07-29T02:59:24;19.30;99.90
7512;DHT22;9999;48.780;9.146;2022-07-29T03:01:54;19.20;99.90
7512;DHT22;9999;48.780;9.146;2022-07-29T03:04:24;19.10;99.90
7512;DHT22;9999;48.780;9.146;2022-07-29T03:06:54;19.20;99.90
7512;DHT22;9999;48.780;9.146;2022-07-29T03:09:22;19.20;99.90
7512;DHT22;9999;48.780;9.146;2022-07-29T03:11:49;19.30;99.90
7512;DHT22;9999;48.780;9.146;2022-07-29T03:14:17;19.40;99.90
7512;DHT22;9999;48.780;9.146;2022-07-29T03:16:45;19.40;99.90
7512;DHT22;9999;48.780;9.146;2022-07-29T03:19:12;19.40;99.90
7512;DHT22;9999;48.780;9.146;2022-07-29T03:21:41;19.30;99.90
7512;DHT22;9999;48.780;9.146;2022-07-29T03:24:07;19.30;99.90
7512;DHT22;9999;48.780;9.146;2022-07-29T03:26:34;19.30;99.90
7512;DHT22;9999;48.780;9.146;2022-07-29T03:29:01;19.30;99.90
7512;DHT22;9999;48.780;9.146;2022-07-29T03:31:28;19.30;99.90
7512;DHT22;9999;48.780;9.146;2022-07-29T03:33:54;19.30;99.90
7512;DHT22;9999;48.780;9.146;2022-07-29T03:36:21;19.30;99.90
7512;DHT22;9999;48.780;9.146;2022-07-29T03:38:50;19.30;99.90
7512;DHT22;9999;48.780;9.146;2022-07-29T03:41:17;19.30;99.90
7512;DHT22;9999;48.780;9.146;2022-07-29T03:43:45;19.30;99.90
7512;DHT22;9999;48.780;9.146;2022-07-29T03:46:14;19.40;99.90
7512;DHT22;9999;48.780;9.146;2022-07-29T03:48:46;19.40;99.90
7512;DHT22;9999;48.780;9.146;2022-07-29T03:51:15;19.40;99.90
7512;DHT22;9999;48.780;9.146;2022-07-29T03:53:41;19.40;99.90
7512;DHT22;9999;48.780;9.146;2022-07-29T03:56:10;19.20;99.90
7512;DHT22;9999;48.780;9.146;2022-07-29T03:58:42;19.10;99.90
7512;DHT22;9999;48.780;9.146;2022-07-29T04:01:10;19.10;99.90
7512;DHT22;9999;48.780;9.146;2022-07-29T04:03:38;19.10;99.90
7512;DHT22;9999;48.780;9.146;2022-07-29T04:06:06;19.10;99.90
7512;DHT22;9999;48.780;9.146;2022-07-29T04:08:33;19.10;99.90
7512;DHT22;9999;48.780;9.146;2022-07-29T04:11:00;19.20;99.90
7512;DHT22;9999;48.780;9.146;2022-07-29T04:13:29;19.20;99.90
7512;DHT22;9999;48.780;9.146;2022-07-29T04:15:56;19.10;99.90
7512;DHT22;9999;48.780;9.146;2022-07-29T04:18:23;19.20;99.90
7512;DHT22;9999;48.780;9.146;2022-07-29T04:20:50;19.10;99.90
7512;DHT22;9999;48.780;9.146;2022-07-29T04:23:17;19.10;99.90
7512;DHT22;9999;48.780;9.146;2022-07-29T04:25:44;19.20;99.90
7512;DHT22;9999;48.780;9.146;2022-07-29T04:28:10;19.20;99.90
7512;DHT22;9999;48.780;9.146;2022-07-29T04:30:39;19.20;99.90
7512;DHT22;9999;48.780;9.146;2022-07-29T04:33:07;19.20;99.90
7512;DHT22;9999;48.780;9.146;2022-07-29T04:35:35;19.20;99.90
7512;DHT22;9999;48.780;9.146;2022-07-29T04:38:03;19.20;99.90
7512;DHT22;9999;48.780;9.146;2022-07-29T04:40:30;19.30;99.90
7512;DHT22;9999;48.780;9.146;2022-07-29T04:42:59;19.20;99.90
7512;DHT22;9999;48.780;9.146;2022-07-29T04:45:25;19.10;99.90
7512;DHT22;9999;48.780;9.146;2022-07-29T04:47:54;19.00;99.90
7512;DHT22;9999;48.780;9.146;2022-07-29T04:50:20;19.10;99.90
7512;DHT22;9999;48.780;9.146;2022-07-29T04:52:48;19.00;99.90
7512;DHT22;9999;48.780;9.146;2022-07-29T04:55:15;19.00;99.90
7512;DHT22;9999;48.780;9.146;2022-07-29T04:57:41;18.90;99.90
7512;DHT22;9999;48.780;9.146;2022-07-29T05:00:09;18.80;99.90
7512;DHT22;9999;48.780;9.146;2022-07-29T05:02:36;18.70;99.90
7512;DHT22;9999;48.780;9.146;2022-07-29T05:05:05;18.80;99.90
7512;DHT22;9999;48.780;9.146;2022-07-29T05:07:32;18.90;99.90
7512;DHT22;9999;48.780;9.146;2022-07-29T05:09:59;19.00;99.90
7512;DHT22;9999;48.780;9.146;2022-07-29T05:12:25;19.00;99.90
7512;DHT22;9999;48.780;9.146;2022-07-29T05:14:53;19.00;99.90
7512;DHT22;9999;48.780;9.146;2022-07-29T05:17:20;19.00;99.90
7512;DHT22;9999;48.780;9.146;2022-07-29T05:19:46;19.00;99.90
7512;DHT22;9999;48.780;9.146;2022-07-29T05:22:15;19.10;99.90
7512;DHT22;9999;48.780;9.146;2022-07-29T05:24:41;19.10;99.90
7512;DHT22;9999;48.780;9.146;2022-07-29T05:27:08;19.10;99.90
7512;DHT22;9999;48.780;9.146;2022-07-29T05:29:35;19.20;99.90
7512;DHT22;9999;48.780;9.146;2022-07-29T05:32:02;19.40;99.90
7512;DHT22;9999;48.780;9.146;2022-07-29T05:34:29;19.40;99.90
7512;DHT22;9999;48.780;9.146;2022-07-29T05:36:56;19.50;99.90
7512;DHT22;9999;48.780;9.146;2022-07-29T05:39:25;19.40;99.90
7512;DHT22;9999;48.780;9.146;2022-07-29T05:41:51;19.50;99.90
7512;DHT22;9999;48.780;9.146;2022-07-29T05:44:18;19.60;99.90
7512;DHT22;9999;48.780;9.146;2022-07-29T05:46:45;19.60;99.90
7512;DHT22;9999;48.780;9.146;2022-07-29T05:49:12;19.60;99.90
7512;DHT22;9999;48.780;9.146;2022-07-29T05:51:39;19.70;99.90
7512;DHT22;9999;48.780;9.146;2022-07-29T05:54:05;19.70;99.90
7512;DHT22;9999;48.780;9.146;2022-07-29T05:56:35;19.70;99.90
7512;DHT22;9999;48.780;9.146;2022-07-29T05:59:02;19.90;99.90
7512;DHT22;9999;48.780;9.146;2022-07-29T06:01:31;19.90;99.90
7512;DHT22;9999;48.780;9.146;2022-07-29T06:03:58;20.00;99.90
7512;DHT22;9999;48.780;9.146;2022-07-29T06:06:25;20.10;99.90
7512;DHT22;9999;48.780;9.146;2022-07-29T06:08:51;20.20;99.90
7512;DHT22;9999;48.780;9.146;2022-07-29T06:11:18;20.30;99.90
7512;DHT22;9999;48.780;9.146;2022-07-29T06:13:46;20.40;99.90
7512;DHT22;9999;48.780;9.146;2022-07-29T06:16:13;20.60;99.90
7512;DHT22;9999;48.780;9.146;2022-07-29T06:18:40;20.80;99.90
7512;DHT22;9999;48.780;9.146;2022-07-29T06:21:07;20.90;99.90
7512;DHT22;9999;48.780;9.146;2022-07-29T06:23:35;21.00;99.90
7512;DHT22;9999;48.780;9.146;2022-07-29T06:26:02;21.20;99.90
7512;DHT22;9999;48.780;9.146;2022-07-29T06:28:29;21.30;99.90
7512;DHT22;9999;48.780;9.146;2022-07-29T06:30:57;21.50;99.90
7512;DHT22;9999;48.780;9.146;2022-07-29T06:33:23;21.80;99.90
7512;DHT22;9999;48.780;9.146;2022-07-29T06:35:50;21.90;99.90
7512;DHT22;9999;48.780;9.146;2022-07-29T06:38:17;21.90;99.90
7512;DHT22;9999;48.780;9.146;2022-07-29T06:40:44;22.10;99.90
7512;DHT22;9999;48.780;9.146;2022-07-29T06:43:26;22.20;99.90
7512;DHT22;9999;48.780;9.146;2022-07-29T06:45:58;22.30;99.90
7512;DHT22;9999;48.780;9.146;2022-07-29T06:48:27;22.60;99.90
7512;DHT22;9999;48.780;9.146;2022-07-29T06:50:53;22.80;99.90
7512;DHT22;9999;48.780;9.146;2022-07-29T06:53:20;22.90;99.90
7512;DHT22;9999;48.780;9.146;2022-07-29T06:55:47;22.90;99.90
7512;DHT22;9999;48.780;9.146;2022-07-29T06:58:14;23.00;99.90
7512;DHT22;9999;48.780;9.146;2022-07-29T07:00:49;23.10;99.90
7512;DHT22;9999;48.780;9.146;2022-07-29T07:03:17;23.20;99.90
7512;DHT22;9999;48.780;9.146;2022-07-29T07:05:44;23.40;99.90
7512;DHT22;9999;48.780;9.146;2022-07-29T07:08:12;23.60;99.90
7512;DHT22;9999;48.780;9.146;2022-07-29T07:10:39;23.90;99.90
7512;DHT22;9999;48.780;9.146;2022-07-29T07:13:07;24.10;99.90
7512;DHT22;9999;48.780;9.146;2022-07-29T07:15:35;24.20;99.90
7512;DHT22;9999;48.780;9.146;2022-07-29T07:18:03;24.40;99.90
7512;DHT22;9999;48.780;9.146;2022-07-29T07:20:32;24.50;99.90
7512;DHT22;9999;48.780;9.146;2022-07-29T07:22:59;24.40;99.90
7512;DHT22;9999;48.780;9.146;2022-07-29T07:25:26;24.40;99.90
7512;DHT22;9999;48.780;9.146;2022-07-29T07:27:53;24.50;99.90
7512;DHT22;9999;48.780;9.146;2022-07-29T07:30:20;24.60;99.90
7512;DHT22;9999;48.780;9.146;2022-07-29T07:32:47;24.60;99.90
7512;DHT22;9999;48.780;9.146;2022-07-29T07:35:14;24.50;99.90
7512;DHT22;9999;48.780;9.146;2022-07-29T07:37:42;24.70;99.90
7512;DHT22;9999;48.780;9.146;2022-07-29T07:40:11;24.80;99.90
7512;DHT22;9999;48.780;9.146;2022-07-29T07:42:38;24.80;99.90
7512;DHT22;9999;48.780;9.146;2022-07-29T07:45:05;24.80;99.90
7512;DHT22;9999;48.780;9.146;2022-07-29T07:47:34;25.10;99.90
7512;DHT22;9999;48.780;9.146;2022-07-29T07:50:03;25.30;99.90
7512;DHT22;9999;48.780;9.146;2022-07-29T07:52:30;25.30;99.90
7512;DHT22;9999;48.780;9.146;2022-07-29T07:54:58;25.50;99.90
7512;DHT22;9999;48.780;9.146;2022-07-29T07:57:25;25.70;99.90
7512;DHT22;9999;48.780;9.146;2022-07-29T07:59:51;25.90;99.90
7512;DHT22;9999;48.780;9.146;2022-07-29T08:02:18;26.10;99.90
7512;DHT22;9999;48.780;9.146;2022-07-29T08:04:45;26.10;99.90
7512;DHT22;9999;48.780;9.146;2022-07-29T08:07:12;26.20;99.90
7512;DHT22;9999;48.780;9.146;2022-07-29T08:09:40;26.50;99.90
7512;DHT22;9999;48.780;9.146;2022-07-29T08:12:08;26.60;99.90
7512;DHT22;9999;48.780;9.146;2022-07-29T08:14:35;26.60;99.90
7512;DHT22;9999;48.780;9.146;2022-07-29T08:17:02;26.60;99.90
7512;DHT22;9999;48.780;9.146;2022-07-29T08:19:29;26.70;99.90
7512;DHT22;9999;48.780;9.146;2022-07-29T08:21:56;26.70;99.90
7512;DHT22;9999;48.780;9.146;2022-07-29T08:24:23;26.90;99.90
7512;DHT22;9999;48.780;9.146;2022-07-29T08:27:09;26.70;99.90
7512;DHT22;9999;48.780;9.146;2022-07-29T08:29:37;26.50;99.90
7512;DHT22;9999;48.780;9.146;2022-07-29T08:32:05;26.70;99.90
7512;DHT22;9999;48.780;9.146;2022-07-29T08:34:32;27.00;99.90
7512;DHT22;9999;48.780;9.146;2022-07-29T08:36:59;27.20;99.90
7512;DHT22;9999;48.780;9.146;2022-07-29T08:39:26;27.00;99.90
7512;DHT22;9999;48.780;9.146;2022-07-29T08:41:53;26.70;99.90
7512;DHT22;9999;48.780;9.146;2022-07-29T08:44:21;26.70;99.90
7512;DHT22;9999;48.780;9.146;2022-07-29T08:46:49;26.60;99.90
7512;DHT22;9999;48.780;9.146;2022-07-29T08:49:16;26.20;99.90
7512;DHT22;9999;48.780;9.146;2022-07-29T08:51:43;26.00;99.90
7512;DHT22;9999;48.780;9.146;2022-07-29T08:54:11;26.20;99.90
7512;DHT22;9999;48.780;9.146;2022-07-29T08:56:42;26.50;99.90
7512;DHT22;9999;48.780;9.146;2022-07-29T08:59:09;26.90;99.90
7512;DHT22;9999;48.780;9.146;2022-07-29T09:01:38;27.20;99.90
7512;DHT22;9999;48.780;9.146;2022-07-29T09:04:10;27.20;99.90
7512;DHT22;9999;48.780;9.146;2022-07-29T09:06:42;27.20;99.90
7512;DHT22;9999;48.780;9.146;2022-07-29T09:09:09;27.10;99.90
7512;DHT22;9999;48.780;9.146;2022-07-29T09:11:35;27.20;99.90
7512;DHT22;9999;48.780;9.146;2022-07-29T09:14:03;27.50;99.90
7512;DHT22;9999;48.780;9.146;2022-07-29T09:16:50;27.50;99.90
7512;DHT22;9999;48.780;9.146;2022-07-29T09:19:26;27.50;99.90
7512;DHT22;9999;48.780;9.146;2022-07-29T09:21:54;27.80;99.90
7512;DHT22;9999;48.780;9.146;2022-07-29T09:24:24;27.80;99.40
7512;DHT22;9999;48.780;9.146;2022-07-29T09:26:51;27.90;98.40
7512;DHT22;9999;48.780;9.146;2022-07-29T09:29:20;27.70;97.20
7512;DHT22;9999;48.780;9.146;2022-07-29T09:31:50;27.80;99.20
7512;DHT22;9999;48.780;9.146;2022-07-29T09:34:22;27.80;98.00
7512;DHT22;9999;48.780;9.146;2022-07-29T09:36:50;27.60;97.50
7512;DHT22;9999;48.780;9.146;2022-07-29T09:39:28;27.20;98.20
7512;DHT22;9999;48.780;9.146;2022-07-29T09:41:56;27.10;97.70
7512;DHT22;9999;48.780;9.146;2022-07-29T09:44:24;26.90;97.10
7512;DHT22;9999;48.780;9.146;2022-07-29T09:46:58;26.80;99.10
7512;DHT22;9999;48.780;9.146;2022-07-29T09:49:31;26.70;98.30
7512;DHT22;9999;48.780;9.146;2022-07-29T09:52:05;26.70;99.50
7512;DHT22;9999;48.780;9.146;2022-07-29T09:54:32;26.80;99.90
7512;DHT22;9999;48.780;9.146;2022-07-29T09:57:03;26.80;99.90
7512;DHT22;9999;48.780;9.146;2022-07-29T09:59:30;26.80;99.90
7512;DHT22;9999;48.780;9.146;2022-07-29T10:01:59;26.70;99.40
7512;DHT22;9999;48.780;9.146;2022-07-29T10:04:37;26.70;99.70
7512;DHT22;9999;48.780;9.146;2022-07-29T10:07:04;26.60;99.90
7512;DHT22;9999;48.780;9.146;2022-07-29T10:09:31;26.60;99.90
7512;DHT22;9999;48.780;9.146;2022-07-29T10:12:07;26.70;99.90
7512;DHT22;9999;48.780;9.146;2022-07-29T10:14:35;26.60;99.90
7512;DHT22;9999;48.780;9.146;2022-07-29T10:17:06;26.60;99.90
7512;DHT22;9999;48.780;9.146;2022-07-29T10:19:34;26.50;99.90
7512;DHT22;9999;48.780;9.146;2022-07-29T10:22:03;26.20;99.10
7512;DHT22;9999;48.780;9.146;2022-07-29T10:24:31;26.00;99.80
7512;DHT22;9999;48.780;9.146;2022-07-29T10:26:59;25.90;99.90
7512;DHT22;9999;48.780;9.146;2022-07-29T10:29:26;25.80;99.90
7512;DHT22;9999;48.780;9.146;2022-07-29T10:32:02;25.70;99.90
7512;DHT22;9999;48.780;9.146;2022-07-29T10:34:49;25.70;99.90
7512;DHT22;9999;48.780;9.146;2022-07-29T10:37:28;25.60;99.90
7512;DHT22;9999;48.780;9.146;2022-07-29T10:40:03;25.40;99.90
7512;DHT22;9999;48.780;9.146;2022-07-29T10:42:54;25.30;99.90
7512;DHT22;9999;48.780;9.146;2022-07-29T10:45:22;25.20;99.90
7512;DHT22;9999;48.780;9.146;2022-07-29T10:48:03;25.20;99.90
7512;DHT22;9999;48.780;9.146;2022-07-29T10:50:52;25.10;99.90
7512;DHT22;9999;48.780;9.146;2022-07-29T10:53:19;25.00;99.90
7512;DHT22;9999;48.780;9.146;2022-07-29T10:55:46;25.00;99.90
7512;DHT22;9999;48.780;9.146;2022-07-29T10:58:16;25.00;99.90
7512;DHT22;9999;48.780;9.146;2022-07-29T11:00:44;24.90;99.90
7512;DHT22;9999;48.780;9.146;2022-07-29T11:03:42;24.80;99.90
7512;DHT22;9999;48.780;9.146;2022-07-29T11:06:11;24.80;99.90
7512;DHT22;9999;48.780;9.146;2022-07-29T11:08:39;24.70;99.90
7512;DHT22;9999;48.780;9.146;2022-07-29T11:11:31;24.60;99.90
7512;DHT22;9999;48.780;9.146;2022-07-29T11:13:58;24.20;99.90
7512;DHT22;9999;48.780;9.146;2022-07-29T11:16:25;23.80;99.90
7512;DHT22;9999;48.780;9.146;2022-07-29T11:19:20;23.70;99.90
7512;DHT22;9999;48.780;9.146;2022-07-29T11:21:49;23.50;99.90
7512;DHT22;9999;48.780;9.146;2022-07-29T11:24:19;23.50;99.90
7512;DHT22;9999;48.780;9.146;2022-07-29T11:27:09;23.20;99.90
7512;DHT22;9999;48.780;9.146;2022-07-29T11:29:39;22.90;99.90
7512;DHT22;9999;48.780;9.146;2022-07-29T11:32:10;22.80;99.90
7512;DHT22;9999;48.780;9.146;2022-07-29T11:34:37;22.70;99.90
7512;DHT22;9999;48.780;9.146;2022-07-29T11:37:18;22.80;99.90
7512;DHT22;9999;48.780;9.146;2022-07-29T11:39:47;22.80;99.90
7512;DHT22;9999;48.780;9.146;2022-07-29T11:42:38;22.80;99.90
7512;DHT22;9999;48.780;9.146;2022-07-29T11:45:07;22.80;99.90
7512;DHT22;9999;48.780;9.146;2022-07-29T11:47:37;22.70;99.90
7512;DHT22;9999;48.780;9.146;2022-07-29T11:50:06;22.60;99.90
7512;DHT22;9999;48.780;9.146;2022-07-29T11:52:35;22.60;99.90
7512;DHT22;9999;48.780;9.146;2022-07-29T11:55:09;22.70;99.90
7512;DHT22;9999;48.780;9.146;2022-07-29T11:57:36;22.60;99.90
7512;DHT22;9999;48.780;9.146;2022-07-29T12:00:06;22.60;99.90
7512;DHT22;9999;48.780;9.146;2022-07-29T12:02:41;22.30;99.90
7512;DHT22;9999;48.780;9.146;2022-07-29T12:05:09;22.10;99.90
7512;DHT22;9999;48.780;9.146;2022-07-29T12:07:39;21.90;99.90
7512;DHT22;9999;48.780;9.146;2022-07-29T12:10:08;22.00;99.90
7512;DHT22;9999;48.780;9.146;2022-07-29T12:12:35;22.00;99.90
7512;DHT22;9999;48.780;9.146;2022-07-29T12:15:13;21.90;99.90
7512;DHT22;9999;48.780;9.146;2022-07-29T12:17:40;22.10;99.90
7512;DHT22;9999;48.780;9.146;2022-07-29T12:20:07;22.20;99.90
7512;DHT22;9999;48.780;9.146;2022-07-29T12:22:36;22.10;99.90
7512;DHT22;9999;48.780;9.146;2022-07-29T12:25:08;22.40;99.90
7512;DHT22;9999;48.780;9.146;2022-07-29T12:27:35;22.50;99.90
7512;DHT22;9999;48.780;9.146;2022-07-29T12:30:04;22.60;99.90
7512;DHT22;9999;48.780;9.146;2022-07-29T12:32:33;22.50;99.90
7512;DHT22;9999;48.780;9.146;2022-07-29T12:35:03;22.20;99.90
7512;DHT22;9999;48.780;9.146;2022-07-29T12:37:30;22.20;99.90
7512;DHT22;9999;48.780;9.146;2022-07-29T12:39:57;21.90;99.90
7512;DHT22;9999;48.780;9.146;2022-07-29T12:42:25;21.80;99.90
7512;DHT22;9999;48.780;9.146;2022-07-29T12:44:52;21.60;99.90
7512;DHT22;9999;48.780;9.146;2022-07-29T12:47:20;21.50;99.90
7512;DHT22;9999;48.780;9.146;2022-07-29T12:49:47;21.50;99.90
7512;DHT22;9999;48.780;9.146;2022-07-29T12:52:28;21.60;99.90
7512;DHT22;9999;48.780;9.146;2022-07-29T12:54:55;21.50;99.90
7512;DHT22;9999;48.780;9.146;2022-07-29T12:57:22;21.30;99.90
7512;DHT22;9999;48.780;9.146;2022-07-29T13:00:06;21.30;99.90
7512;DHT22;9999;48.780;9.146;2022-07-29T13:02:35;21.30;99.90
7512;DHT22;9999;48.780;9.146;2022-07-29T13:05:03;21.30;99.90
7512;DHT22;9999;48.780;9.146;2022-07-29T13:07:32;21.30;99.90
7512;DHT22;9999;48.780;9.146;2022-07-29T13:10:12;21.30;99.90
7512;DHT22;9999;48.780;9.146;2022-07-29T13:15:22;21.40;99.90
7512;DHT22;9999;48.780;9.146;2022-07-29T13:17:49;21.40;99.90
7512;DHT22;9999;48.780;9.146;2022-07-29T13:20:16;21.40;99.90
7512;DHT22;9999;48.780;9.146;2022-07-29T13:22:47;21.40;99.90
7512;DHT22;9999;48.780;9.146;2022-07-29T13:25:14;21.20;99.90
7512;DHT22;9999;48.780;9.146;2022-07-29T13:27:49;21.00;99.90
7512;DHT22;9999;48.780;9.146;2022-07-29T13:30:16;21.00;99.90
7512;DHT22;9999;48.780;9.146;2022-07-29T13:32:44;20.80;99.90
7512;DHT22;9999;48.780;9.146;2022-07-29T13:35:12;20.80;99.90
7512;DHT22;9999;48.780;9.146;2022-07-29T13:37:39;20.60;99.90
7512;DHT22;9999;48.780;9.146;2022-07-29T13:40:07;20.70;99.90
7512;DHT22;9999;48.780;9.146;2022-07-29T13:42:34;20.50;99.90
7512;DHT22;9999;48.780;9.146;2022-07-29T13:45:01;20.40;99.90
7512;DHT22;9999;48.780;9.146;2022-07-29T13:47:30;20.50;99.90
7512;DHT22;9999;48.780;9.146;2022-07-29T13:49:58;20.50;99.90
7512;DHT22;9999;48.780;9.146;2022-07-29T13:52:25;20.50;99.90
7512;DHT22;9999;48.780;9.146;2022-07-29T13:54:52;20.60;99.90
7512;DHT22;9999;48.780;9.146;2022-07-29T13:57:19;20.70;99.90
7512;DHT22;9999;48.780;9.146;2022-07-29T13:59:45;20.90;99.90
7512;DHT22;9999;48.780;9.146;2022-07-29T14:02:12;21.10;99.90
7512;DHT22;9999;48.780;9.146;2022-07-29T14:04:39;21.10;99.90
7512;DHT22;9999;48.780;9.146;2022-07-29T14:07:07;21.20;99.90
7512;DHT22;9999;48.780;9.146;2022-07-29T14:09:35;21.20;99.90
7512;DHT22;9999;48.780;9.146;2022-07-29T14:12:03;21.40;99.90
7512;DHT22;9999;48.780;9.146;2022-07-29T14:14:29;21.60;99.90
7512;DHT22;9999;48.780;9.146;2022-07-29T14:16:57;21.60;99.90
7512;DHT22;9999;48.780;9.146;2022-07-29T14:19:24;21.60;99.90
7512;DHT22;9999;48.780;9.146;2022-07-29T14:21:51;21.70;99.90
7512;DHT22;9999;48.780;9.146;2022-07-29T14:24:19;21.80;99.90
7512;DHT22;9999;48.780;9.146;2022-07-29T14:26:46;21.80;99.90
7512;DHT22;9999;48.780;9.146;2022-07-29T14:29:13;21.80;99.90
7512;DHT22;9999;48.780;9.146;2022-07-29T14:31:39;21.80;99.90
7512;DHT22;9999;48.780;9.146;2022-07-29T14:34:06;21.90;99.90
7512;DHT22;9999;48.780;9.146;2022-07-29T14:36:33;21.90;99.90
7512;DHT22;9999;48.780;9.146;2022-07-29T14:39:00;22.00;99.90
7512;DHT22;9999;48.780;9.146;2022-07-29T14:41:28;22.00;99.90
7512;DHT22;9999;48.780;9.146;2022-07-29T14:43:55;22.10;99.90
7512;DHT22;9999;48.780;9.146;2022-07-29T14:46:22;22.10;99.90
7512;DHT22;9999;48.780;9.146;2022-07-29T14:48:48;22.20;99.90
7512;DHT22;9999;48.780;9.146;2022-07-29T14:51:15;22.20;99.90
7512;DHT22;9999;48.780;9.146;2022-07-29T14:53:42;22.30;99.90
7512;DHT22;9999;48.780;9.146;2022-07-29T14:56:09;22.30;99.90
7512;DHT22;9999;48.780;9.146;2022-07-29T14:58:37;22.40;99.90
7512;DHT22;9999;48.780;9.146;2022-07-29T15:01:04;22.40;99.90
7512;DHT22;9999;48.780;9.146;2022-07-29T15:03:31;22.50;99.90
7512;DHT22;9999;48.780;9.146;2022-07-29T15:05:58;22.50;99.90
7512;DHT22;9999;48.780;9.146;2022-07-29T15:08:25;22.50;99.90
7512;DHT22;9999;48.780;9.146;2022-07-29T15:10:53;22.50;99.90
7512;DHT22;9999;48.780;9.146;2022-07-29T15:13:22;22.60;99.90
7512;DHT22;9999;48.780;9.146;2022-07-29T15:15:51;22.60;99.90
7512;DHT22;9999;48.780;9.146;2022-07-29T15:18:18;22.60;99.90
7512;DHT22;9999;48.780;9.146;2022-07-29T15:20:44;22.50;99.90
7512;DHT22;9999;48.780;9.146;2022-07-29T15:23:12;22.50;99.90
7512;DHT22;9999;48.780;9.146;2022-07-29T15:25:39;22.50;99.90
7512;DHT22;9999;48.780;9.146;2022-07-29T15:28:05;22.60;99.90
7512;DHT22;9999;48.780;9.146;2022-07-29T15:30:34;22.60;99.90
7512;DHT22;9999;48.780;9.146;2022-07-29T15:33:07;22.60;99.90
7512;DHT22;9999;48.780;9.146;2022-07-29T15:35:34;22.60;99.90
7512;DHT22;9999;48.780;9.146;2022-07-29T15:38:01;22.50;99.90
7512;DHT22;9999;48.780;9.146;2022-07-29T15:40:28;22.50;99.90
7512;DHT22;9999;48.780;9.146;2022-07-29T15:42:55;22.60;99.90
7512;DHT22;9999;48.780;9.146;2022-07-29T15:45:22;22.60;99.90
7512;DHT22;9999;48.780;9.146;2022-07-29T15:47:49;22.50;99.90
7512;DHT22;9999;48.780;9.146;2022-07-29T15:50:17;22.60;99.90
7512;DHT22;9999;48.780;9.146;2022-07-29T15:52:44;22.60;99.90
7512;DHT22;9999;48.780;9.146;2022-07-29T15:55:11;22.60;99.90
7512;DHT22;9999;48.780;9.146;2022-07-29T15:57:39;22.70;99.90
7512;DHT22;9999;48.780;9.146;2022-07-29T16:00:08;22.60;99.90
7512;DHT22;9999;48.780;9.146;2022-07-29T16:02:35;22.60;99.90
7512;DHT22;9999;48.780;9.146;2022-07-29T16:05:02;22.70;99.90
7512;DHT22;9999;48.780;9.146;2022-07-29T16:07:31;22.70;99.90
7512;DHT22;9999;48.780;9.146;2022-07-29T16:09:57;22.70;99.90
7512;DHT22;9999;48.780;9.146;2022-07-29T16:12:24;22.60;99.90
7512;DHT22;9999;48.780;9.146;2022-07-29T16:14:51;22.60;99.90
7512;DHT22;9999;48.780;9.146;2022-07-29T16:17:18;22.70;99.90